Airfield :
LOGIN :

Register | Disclaimer

   EN    FR    IT 

 










Legend :    VFR   Marginal VFR   IFR   Intensive IFR   Very Intensive IFR
Visi :
Ceiling :
>= 8 km
>= 3000ft
5 to 8 km
1000 to 3000 ft
1500m to 5 km
500 to 1000 ft
800 to 1500m
200 to 500 ft
< 800m
< 200 ft
Symbols :   Thunderstorms  Fog  Heavy snow  Heavy precipitations  Wind > 20 kt
SIGMETs :     Misc.  Thunderstorms  Icing  Turbulence  Mountain Waves  Volcanic Ashes







- Airport Elevation : 327 ft
- IATA code : BHX
- Download approach charts


EGBB - Birmingham

CURRENT METAR :
  • 181720Z 16011KT 9999 BKN039 04/M02 Q1011

EXPIRED METARs :
  • 181650Z 16013KT 9999 FEW041 04/M02 Q1011
  • 181620Z 16012KT CAVOK 04/M02 Q1011
  • 181550Z 16012KT 9999 FEW037 04/M02 Q1011
  • 181520Z 16014KT 9999 SCT042 05/M01 Q1011
  • 181450Z 16014KT 9999 BKN048 05/M01 Q1011

TAF TAF EGBB
Valid from the 18 at 18:00 until the 19 at 18:00 UTC


181657Z 1818/1918 16010KT 9999 SCT040
TEMPO 1818/1824 7000 RA BKN010
PROB30
TEMPO 1818/1822 16015G25KT 3000 -SN RASN BKN005
BECMG 1821/1824 BKN010
TEMPO 1900/1918 6000 -RA BKN005
PROB30
TEMPO 1900/1905 4000 RA BR BKN004
PROB30
TEMPO 1905/1918 2000 RADZ BR BKN002
ATIS : +44 121 780 0910
No reported NOTAMs for that airfield.



MET'MAP, your aeronautical weather chart ! - Copyright ORBIFLY December 2007 - Disclaimer

ORBIFLY MET'MAP TEAM :

Programming & Development : Alexandra Zaïnal
Concept & Development : Baudouin d'Aumeries
Co-Development & Prog : Marc-Olivier Méhu
Technical & hardware support : Manuel Goepfert

Contact : metmap@orbifly.com




SOURCES & CREDITS :

   NOAA